KMCC

Details ICAO KMCC (MCC)
Name MC CLELLAN AFLD
Region United States
Timezone America/Los_Angeles (UTC-8.0)
Plans Departing 17
Arriving 12
Stats Elevation 75 ft / 23 m (AMSL)
Location 38.667637° -121.400600°
Runways 1
Magnetic Variation 13.535° E
Sunrise 2017-12-13 15:16:37 UTC / 2017-12-13 07:16:37 Local
Sunset 2017-12-14 00:46:09 UTC / 2017-12-13 16:46:09 Local
Advertisement - Login to hide

Runways

ID Width Length Bearing (true) Bearing (mag) Surface Threshold Offset Overrun Length
16 200 ft / 61 m 10,620 ft / 3,237 m 180.07° 166.54° Concrete 0 ft / 0 m 1,273 ft / 388 m
34 200 ft / 61 m 10,620 ft / 3,237 m 0.07° 346.54° Concrete 0 ft / 0 m 1,125 ft / 343 m

Approach Navaids

Runway Type Ident Frequency Range Bearing (true) Bearing (mag) Slope Elevation
16 Localiser IMCC 109.70 MHz 18 nm / 33 km 180.06° 166.53° - 66 ft / 20 m (AMSL)
16 Glidescope IMCC 109.70 MHz 10 nm / 19 km 180.07° 166.53° 3.00° 70 ft / 21 m (AMSL)

Map

Weather


0- 5 10 15 20 25 30 35+ Temperature / ° C

Clouds and Precipitation
Forecast for 2017-12-13 18:00 UTC. Updated 24 minutes ago

Ground ~20,000 ft ~40,000 ft Winds

METAR

KMCC 131730Z AUTO 33003KT 10SM CLR 05/04 A3023 RMK AO2

TAF

Not found

Frequencies

Unicom 122.97 MHz CTAF/UNICOM
Approach 127.40 MHz NORCAL APP/DEP
Warning: Do not use this data for real-world aviation or navigation. No guarantee of current accuracy is given.